createdAt,value
2023-03-05T00:00:09.874Z,89.72
2023-03-05T00:02:32.338Z,89.21
2023-03-05T00:04:53.874Z,88.63
2023-03-05T00:07:15.357Z,89.20
2023-03-05T00:09:36.853Z,89.56
2023-03-05T00:11:58.335Z,90.17
2023-03-05T00:14:19.831Z,90.88
2023-03-05T00:16:41.338Z,89.14
2023-03-05T00:19:03.149Z,89.69
2023-03-05T00:21:25.677Z,90.75
2023-03-05T00:23:47.308Z,90.35
2023-03-05T00:26:08.828Z,90.95
2023-03-05T00:28:30.318Z,89.20
2023-03-05T00:30:51.792Z,88.07
2023-03-05T00:33:14.206Z,89.68
2023-03-05T00:35:43.952Z,88.74
2023-03-05T00:38:05.440Z,89.45
2023-03-05T00:40:26.942Z,89.66
2023-03-05T00:42:48.410Z,88.90
2023-03-05T00:45:10.545Z,88.55
2023-03-05T00:47:32.609Z,88.18
2023-03-05T00:49:54.064Z,87.28
2023-03-05T00:52:15.486Z,88.36
2023-03-05T00:54:36.936Z,89.83
2023-03-05T00:56:58.366Z,89.39
2023-03-05T00:59:19.814Z,86.32
2023-03-05T01:01:41.343Z,86.95
2023-03-05T01:04:02.935Z,85.63
2023-03-05T01:06:24.350Z,85.03
2023-03-05T01:08:45.891Z,81.66
2023-03-05T01:11:08.387Z,82.61
2023-03-05T01:13:29.930Z,78.85
2023-03-05T01:15:51.677Z,79.13
2023-03-05T01:18:13.412Z,80.28
2023-03-05T01:20:34.917Z,80.94
2023-03-05T01:22:58.920Z,82.17
2023-03-05T01:25:20.524Z,80.81
2023-03-05T01:27:42.020Z,81.01
2023-03-05T01:30:04.513Z,80.99
2023-03-05T01:32:26.082Z,81.12
2023-03-05T01:34:47.736Z,80.14
2023-03-05T01:37:09.569Z,80.64
2023-03-05T01:39:31.101Z,81.37
2023-03-05T01:41:52.534Z,80.25
2023-03-05T01:44:28.054Z,81.94
2023-03-05T01:46:49.619Z,80.12
2023-03-05T01:49:19.705Z,80.97
2023-03-05T01:51:51.594Z,79.83
2023-03-05T01:54:15.529Z,78.32
2023-03-05T01:56:39.528Z,76.51
2023-03-05T01:59:04.779Z,79.11
2023-03-05T02:01:26.437Z,79.37
2023-03-05T02:03:48.444Z,79.45
2023-03-05T02:06:10.394Z,79.86
2023-03-05T02:08:32.159Z,80.88
2023-03-05T02:10:56.578Z,81.58
2023-03-05T02:13:27.331Z,81.71
2023-03-05T02:15:49.994Z,83.18
2023-03-05T02:18:11.475Z,82.26
2023-03-05T02:20:48.265Z,81.07
2023-03-05T02:23:09.700Z,82.58
2023-03-05T02:25:31.145Z,82.26
2023-03-05T02:27:59.948Z,82.61
2023-03-05T02:30:21.627Z,81.52
2023-03-05T02:32:43.121Z,82.02
2023-03-05T02:35:04.981Z,82.78
2023-03-05T02:37:26.402Z,84.22
2023-03-05T02:39:47.854Z,83.95
2023-03-05T02:42:09.417Z,83.15
2023-03-05T02:44:30.971Z,85.19
2023-03-05T02:46:52.742Z,84.66
2023-03-05T02:49:14.204Z,85.39
2023-03-05T02:51:35.756Z,85.89
2023-03-05T02:53:57.193Z,84.91
2023-03-05T02:56:18.797Z,83.98
2023-03-05T02:58:40.250Z,84.86
2023-03-05T03:01:01.956Z,86.24
2023-03-05T03:03:23.691Z,86.78
2023-03-05T03:05:45.150Z,84.44
2023-03-05T03:08:06.986Z,85.27
2023-03-05T03:10:28.562Z,85.15
2023-03-05T03:12:50.005Z,86.18
2023-03-05T03:15:14.725Z,86.54
2023-03-05T03:17:37.189Z,87.29
2023-03-05T03:19:58.634Z,87.94
2023-03-05T03:22:20.134Z,88.51
2023-03-05T03:24:42.956Z,88.29
2023-03-05T03:27:05.050Z,87.83
2023-03-05T03:29:26.530Z,87.98
2023-03-05T03:31:48.265Z,88.87
2023-03-05T03:34:09.715Z,90.59
2023-03-05T03:36:32.123Z,90.66
2023-03-05T03:38:53.547Z,91.36
2023-03-05T03:41:15.006Z,91.71
2023-03-05T03:43:36.896Z,93.03
2023-03-05T03:45:58.384Z,91.94
2023-03-05T03:48:19.840Z,91.38
2023-03-05T03:50:42.362Z,91.42
2023-03-05T03:53:03.848Z,91.25
2023-03-05T03:55:25.403Z,91.00
2023-03-05T03:57:46.912Z,90.11
2023-03-05T04:00:11.004Z,88.59
2023-03-05T04:02:33.111Z,91.00
2023-03-05T04:04:54.712Z,89.69
2023-03-05T04:07:16.235Z,89.61
2023-03-05T04:09:37.735Z,88.85
2023-03-05T04:11:59.169Z,88.52
2023-03-05T04:14:21.643Z,88.16
2023-03-05T04:16:43.137Z,87.87
2023-03-05T04:19:04.580Z,84.36
2023-03-05T04:21:26.107Z,82.68
2023-03-05T04:23:47.616Z,84.69
2023-03-05T04:26:09.137Z,85.32
2023-03-05T04:28:31.024Z,86.13
2023-03-05T04:30:52.664Z,86.65
2023-03-05T04:33:14.264Z,86.40
2023-03-05T04:35:36.729Z,85.05
2023-03-05T04:37:58.236Z,84.58
2023-03-05T04:40:19.917Z,85.73
2023-03-05T04:42:41.441Z,85.96
2023-03-05T04:45:03.502Z,84.15
2023-03-05T04:47:24.972Z,84.10
2023-03-05T04:49:46.494Z,82.29
2023-03-05T04:52:08.461Z,83.48
2023-03-05T04:54:29.896Z,82.04
2023-03-05T04:56:51.375Z,83.22
2023-03-05T04:59:13.366Z,82.16
2023-03-05T05:01:35.510Z,83.22
2023-03-05T05:03:56.989Z,82.68
2023-03-05T05:06:18.458Z,79.69
2023-03-05T05:08:39.920Z,82.29
2023-03-05T05:11:07.346Z,83.29
2023-03-05T05:13:30.359Z,83.40
2023-03-05T05:15:52.518Z,82.65
2023-03-05T05:18:14.027Z,81.93
2023-03-05T05:20:35.484Z,83.23
2023-03-05T05:22:56.918Z,82.21
2023-03-05T05:25:18.528Z,79.89
2023-03-05T05:27:40.667Z,80.56
2023-03-05T05:30:02.488Z,80.04
2023-03-05T05:32:24.703Z,80.92
2023-03-05T05:34:46.262Z,81.11
2023-03-05T05:37:07.691Z,79.40
2023-03-05T05:39:29.120Z,79.13
2023-03-05T05:41:52.195Z,79.94
2023-03-05T05:44:13.626Z,80.89
2023-03-05T05:46:35.856Z,79.41
2023-03-05T05:48:57.327Z,78.71
2023-03-05T05:51:21.785Z,79.53
2023-03-05T05:53:44.310Z,78.72
2023-03-05T05:56:07.205Z,80.62
2023-03-05T05:58:28.638Z,82.37
2023-03-05T06:00:50.068Z,82.16
2023-03-05T06:03:11.577Z,81.56
2023-03-05T06:05:33.339Z,83.41
2023-03-05T06:07:54.869Z,82.41
2023-03-05T06:10:16.424Z,81.55
2023-03-05T06:12:37.929Z,77.96
2023-03-05T06:14:59.403Z,76.49
2023-03-05T06:17:29.928Z,78.20
2023-03-05T06:19:55.344Z,76.88
2023-03-05T06:22:16.797Z,74.71
2023-03-05T06:24:38.854Z,76.23
2023-03-05T06:27:00.293Z,77.93
2023-03-05T06:29:21.714Z,76.86
2023-03-05T06:31:43.185Z,77.24
2023-03-05T06:34:04.752Z,77.52
2023-03-05T06:36:26.313Z,78.86
2023-03-05T06:38:49.023Z,79.44
2023-03-05T06:41:14.335Z,78.49
2023-03-05T06:43:41.562Z,79.28
2023-03-05T06:46:05.064Z,80.58
2023-03-05T06:48:26.594Z,79.16
2023-03-05T06:50:48.038Z,78.94
2023-03-05T06:53:09.520Z,80.21
2023-03-05T06:55:30.968Z,79.48
2023-03-05T06:57:52.414Z,81.15
2023-03-05T07:00:14.415Z,81.10
2023-03-05T07:02:37.705Z,82.06
2023-03-05T07:04:59.218Z,80.02
2023-03-05T07:07:20.816Z,80.22
2023-03-05T07:09:44.924Z,80.86
2023-03-05T07:12:07.585Z,79.48
2023-03-05T07:14:29.019Z,79.96
2023-03-05T07:16:50.612Z,76.09
2023-03-05T07:19:12.070Z,76.37
2023-03-05T07:21:36.890Z,78.23
2023-03-05T07:24:01.519Z,78.46
2023-03-05T07:26:23.474Z,78.75
2023-03-05T07:28:44.954Z,78.97
2023-03-05T07:31:09.233Z,76.93
2023-03-05T07:33:32.214Z,76.04
2023-03-05T07:35:54.182Z,77.01
2023-03-05T07:38:15.680Z,75.52
2023-03-05T07:40:37.100Z,75.24
2023-03-05T07:42:58.571Z,75.42
2023-03-05T07:45:20.146Z,75.15
2023-03-05T07:47:41.690Z,76.54
2023-03-05T07:50:04.037Z,76.05
2023-03-05T07:52:25.519Z,76.72
2023-03-05T07:54:46.988Z,76.23
2023-03-05T07:57:09.083Z,74.19
2023-03-05T07:59:30.625Z,74.81
2023-03-05T08:01:52.133Z,74.72
2023-03-05T08:04:13.735Z,74.71
2023-03-05T08:06:35.212Z,74.08
2023-03-05T08:08:58.244Z,73.96
2023-03-05T08:11:19.754Z,72.67
2023-03-05T08:13:42.503Z,72.04
2023-03-05T08:16:09.102Z,73.66
2023-03-05T08:18:30.599Z,73.57
2023-03-05T08:20:52.077Z,74.40
2023-03-05T08:23:13.554Z,72.76
2023-03-05T08:25:35.265Z,73.29
2023-03-05T08:27:57.031Z,72.69
2023-03-05T08:30:22.401Z,74.42
2023-03-05T08:32:44.028Z,75.13
2023-03-05T08:35:06.761Z,75.25
2023-03-05T08:37:28.691Z,75.82
2023-03-05T08:39:50.199Z,76.07
2023-03-05T08:42:11.681Z,76.66
2023-03-05T08:44:33.178Z,78.08
2023-03-05T08:46:54.716Z,78.29
2023-03-05T08:49:16.347Z,79.83
2023-03-05T08:51:37.813Z,75.30
2023-03-05T08:54:00.158Z,77.96
2023-03-05T08:56:21.866Z,75.31
2023-03-05T08:58:44.620Z,76.37
2023-03-05T09:01:06.944Z,78.95
2023-03-05T09:03:28.431Z,74.61
2023-03-05T09:05:51.351Z,73.15
2023-03-05T09:08:12.906Z,74.29
2023-03-05T09:10:34.350Z,74.60
2023-03-05T09:12:55.848Z,74.93
2023-03-05T09:15:17.358Z,73.10
2023-03-05T09:17:41.968Z,73.75
2023-03-05T09:20:04.841Z,73.19
2023-03-05T09:22:26.278Z,74.64
2023-03-05T09:24:47.764Z,75.04
2023-03-05T09:27:09.247Z,71.50
2023-03-05T09:29:31.366Z,72.17
2023-03-05T09:31:53.118Z,71.81
2023-03-05T09:34:14.600Z,75.36
2023-03-05T09:36:36.052Z,73.25
2023-03-05T09:38:58.309Z,72.53
2023-03-05T09:41:43.079Z,72.79
2023-03-05T09:44:30.260Z,71.45
2023-03-05T09:47:27.325Z,72.92
2023-03-05T09:50:04.115Z,71.48
2023-03-05T09:52:45.369Z,71.51
2023-03-05T09:55:14.785Z,70.56
2023-03-05T09:57:45.732Z,69.16
2023-03-05T10:00:19.823Z,65.64
2023-03-05T10:02:50.273Z,66.22
2023-03-05T10:05:29.563Z,67.95
2023-03-05T10:08:01.555Z,67.18
2023-03-05T10:10:34.925Z,65.14
2023-03-05T10:12:58.821Z,64.89
2023-03-05T10:15:32.095Z,64.25
2023-03-05T10:17:58.749Z,65.22
2023-03-05T10:20:41.130Z,64.79
2023-03-05T10:23:08.764Z,67.13
2023-03-05T10:25:40.175Z,66.61
2023-03-05T10:28:17.818Z,67.47
2023-03-05T10:31:03.311Z,70.74
2023-03-05T10:33:47.788Z,66.89
2023-03-05T10:36:29.678Z,69.64
2023-03-05T10:39:30.326Z,69.38
2023-03-05T10:42:05.870Z,72.09
2023-03-05T10:44:39.614Z,72.88
2023-03-05T10:47:02.971Z,74.48
2023-03-05T10:49:32.519Z,73.32
2023-03-05T10:52:09.762Z,73.07
2023-03-05T10:54:33.935Z,72.60
2023-03-05T10:57:16.230Z,74.35
2023-03-05T10:59:37.725Z,73.09
2023-03-05T11:02:08.478Z,73.03
2023-03-05T11:04:35.958Z,74.65
2023-03-05T11:06:57.476Z,75.32
2023-03-05T11:09:24.499Z,74.25
2023-03-05T11:12:09.982Z,73.69
2023-03-05T11:14:33.352Z,72.79
2023-03-05T11:16:54.813Z,73.36
2023-03-05T11:19:29.970Z,71.03
2023-03-05T11:22:10.986Z,67.25
2023-03-05T11:24:34.105Z,67.41
2023-03-05T11:26:57.872Z,66.37
2023-03-05T11:29:27.941Z,67.17
2023-03-05T11:31:50.449Z,66.68
2023-03-05T11:34:17.864Z,65.82
2023-03-05T11:36:42.402Z,66.42
2023-03-05T11:39:07.557Z,66.62
2023-03-05T11:41:41.181Z,65.98
2023-03-05T11:44:11.221Z,65.17
2023-03-05T11:46:41.409Z,66.14
2023-03-05T11:49:02.939Z,65.35
2023-03-05T11:51:37.169Z,65.37
2023-03-05T11:54:07.943Z,64.91
2023-03-05T11:56:36.900Z,67.08
2023-03-05T11:59:05.304Z,69.48
2023-03-05T12:01:30.721Z,70.27
2023-03-05T12:03:53.710Z,72.06
2023-03-05T12:06:30.527Z,73.28
2023-03-05T12:08:55.830Z,70.84
2023-03-05T12:11:23.936Z,69.19
2023-03-05T12:13:51.522Z,67.38
2023-03-05T12:16:30.836Z,70.61
2023-03-05T12:19:01.287Z,68.52
2023-03-05T12:21:37.096Z,67.89
2023-03-05T12:24:03.534Z,70.11
2023-03-05T12:26:52.774Z,67.74
2023-03-05T12:29:41.147Z,69.98
2023-03-05T12:32:04.808Z,70.33
2023-03-05T12:34:48.191Z,69.72
2023-03-05T12:37:21.780Z,69.07
2023-03-05T12:39:52.560Z,67.93
2023-03-05T12:42:34.245Z,67.50
2023-03-05T12:45:16.973Z,66.36
2023-03-05T12:47:45.871Z,65.78
2023-03-05T12:50:28.778Z,65.80
2023-03-05T12:52:50.270Z,63.74
2023-03-05T12:55:33.722Z,63.12
2023-03-05T12:58:25.947Z,62.76
2023-03-05T13:00:59.178Z,64.80
2023-03-05T13:03:30.825Z,65.99
2023-03-05T13:05:55.450Z,65.50
2023-03-05T13:08:22.709Z,66.00
2023-03-05T13:10:52.213Z,67.06
2023-03-05T13:13:16.048Z,66.54
2023-03-05T13:15:37.628Z,68.53
2023-03-05T13:18:07.433Z,72.49
2023-03-05T13:20:42.781Z,73.94
2023-03-05T13:23:18.373Z,72.24
2023-03-05T13:25:39.889Z,72.08
2023-03-05T13:28:09.840Z,74.58
2023-03-05T13:30:33.066Z,74.58
2023-03-05T13:33:03.025Z,74.97
2023-03-05T13:35:24.535Z,77.45
2023-03-05T13:37:46.667Z,76.68
2023-03-05T13:40:35.102Z,77.77
2023-03-05T13:43:09.678Z,78.75
2023-03-05T13:45:32.327Z,79.66
2023-03-05T13:47:59.644Z,79.18
2023-03-05T13:50:31.049Z,78.04
2023-03-05T13:52:53.264Z,78.16
2023-03-05T13:55:17.817Z,78.59
2023-03-05T13:57:57.344Z,77.35
2023-03-05T14:00:36.726Z,76.26
2023-03-05T14:03:11.194Z,77.51
2023-03-05T14:05:32.961Z,78.35
2023-03-05T14:07:56.701Z,79.84
2023-03-05T14:10:34.915Z,80.10
2023-03-05T14:12:57.796Z,78.98
2023-03-05T14:15:34.256Z,78.16
2023-03-05T14:18:13.701Z,77.25
2023-03-05T14:20:35.261Z,78.09
2023-03-05T14:22:59.392Z,77.57
2023-03-05T14:25:39.738Z,76.41
2023-03-05T14:28:06.415Z,76.80
2023-03-05T14:30:30.914Z,76.71
2023-03-05T14:32:55.929Z,77.55
2023-03-05T14:35:20.759Z,75.69
2023-03-05T14:37:45.017Z,74.56
2023-03-05T14:40:19.704Z,75.01
2023-03-05T14:43:02.670Z,74.05
2023-03-05T14:45:28.156Z,72.68
2023-03-05T14:47:51.060Z,72.65
2023-03-05T14:50:24.541Z,73.21
2023-03-05T14:52:48.531Z,72.66
2023-03-05T14:55:15.942Z,73.83
2023-03-05T14:57:37.469Z,73.40
2023-03-05T14:59:59.085Z,73.59
2023-03-05T15:02:24.168Z,73.58
2023-03-05T15:04:46.545Z,73.68
2023-03-05T15:07:15.692Z,73.49
2023-03-05T15:09:37.800Z,72.46
2023-03-05T15:11:59.250Z,72.83
2023-03-05T15:14:20.697Z,74.13
2023-03-05T15:16:44.116Z,75.19
2023-03-05T15:19:05.585Z,73.92
2023-03-05T15:21:27.037Z,75.16
2023-03-05T15:23:48.507Z,75.51
2023-03-05T15:26:13.326Z,76.41
2023-03-05T15:28:36.893Z,76.42
2023-03-05T15:31:00.263Z,77.22
2023-03-05T15:33:23.114Z,76.75
2023-03-05T15:35:44.986Z,76.83
2023-03-05T15:38:06.770Z,77.16
2023-03-05T15:40:28.713Z,78.00
2023-03-05T15:42:50.425Z,79.96
2023-03-05T15:45:11.913Z,79.36
2023-03-05T15:47:33.679Z,79.42
2023-03-05T15:49:55.120Z,80.86
2023-03-05T15:52:16.552Z,79.98
2023-03-05T15:54:38.020Z,81.28
2023-03-05T15:56:59.457Z,80.67
2023-03-05T15:59:21.122Z,80.41
2023-03-05T16:01:48.128Z,81.42
2023-03-05T16:04:09.707Z,80.97
2023-03-05T16:06:33.827Z,82.31
2023-03-05T16:09:02.645Z,82.76
2023-03-05T16:11:24.335Z,81.99
2023-03-05T16:13:45.815Z,84.25
2023-03-05T16:16:09.257Z,84.25
2023-03-05T16:18:32.535Z,84.70
2023-03-05T16:20:55.037Z,85.72
2023-03-05T16:23:16.584Z,84.81
2023-03-05T16:25:38.097Z,86.69
2023-03-05T16:27:59.530Z,88.03
2023-03-05T16:30:21.300Z,89.46
2023-03-05T16:32:43.284Z,89.54
2023-03-05T16:35:05.431Z,90.70
2023-03-05T16:37:26.926Z,91.37
2023-03-05T16:39:48.999Z,92.24
2023-03-05T16:42:10.667Z,93.15
2023-03-05T16:44:32.145Z,93.70
2023-03-05T16:46:53.972Z,94.04
2023-03-05T16:49:15.888Z,93.15
2023-03-05T16:51:37.385Z,92.76
2023-03-05T16:53:58.844Z,93.65
2023-03-05T16:56:20.850Z,93.70
2023-03-05T16:58:42.307Z,93.92
2023-03-05T17:01:08.208Z,94.02
2023-03-05T17:03:29.881Z,94.48
2023-03-05T17:05:51.348Z,93.70
2023-03-05T17:08:12.898Z,94.29
2023-03-05T17:10:34.384Z,93.26
2023-03-05T17:12:56.622Z,93.73
2023-03-05T17:15:18.196Z,94.76
2023-03-05T17:17:40.643Z,94.55
2023-03-05T17:20:02.211Z,93.88
2023-03-05T17:22:24.197Z,93.51
2023-03-05T17:24:47.264Z,93.55
2023-03-05T17:27:10.263Z,93.57
2023-03-05T17:29:31.763Z,94.72
2023-03-05T17:31:53.447Z,94.73
2023-03-05T17:34:15.705Z,94.10
2023-03-05T17:36:39.223Z,93.91
2023-03-05T17:39:00.741Z,93.96
2023-03-05T17:41:22.918Z,94.60
2023-03-05T17:43:44.965Z,94.33
2023-03-05T17:46:07.118Z,95.28
2023-03-05T17:48:28.695Z,94.91
2023-03-05T17:50:50.190Z,94.53
2023-03-05T17:53:12.076Z,94.59
2023-03-05T17:55:33.817Z,94.17
2023-03-05T17:57:56.619Z,94.17
2023-03-05T18:00:21.953Z,94.13
2023-03-05T18:02:43.556Z,94.61
2023-03-05T18:05:05.972Z,93.97
2023-03-05T18:07:27.405Z,92.50
2023-03-05T18:09:48.858Z,91.97
2023-03-05T18:12:10.269Z,90.82
2023-03-05T18:14:31.765Z,91.21
2023-03-05T18:16:54.710Z,90.90
2023-03-05T18:19:16.603Z,89.52
2023-03-05T18:21:40.099Z,90.03
2023-03-05T18:24:01.649Z,89.81
2023-03-05T18:26:23.063Z,88.93
2023-03-05T18:28:44.569Z,87.99
2023-03-05T18:31:06.091Z,87.00
2023-03-05T18:33:27.576Z,85.99
2023-03-05T18:35:52.166Z,85.30
2023-03-05T18:38:14.003Z,84.60
2023-03-05T18:40:38.980Z,83.73
2023-03-05T18:43:00.946Z,83.14
2023-03-05T18:45:22.903Z,82.70
2023-03-05T18:47:44.632Z,81.43
2023-03-05T18:50:07.003Z,81.26
2023-03-05T18:52:28.443Z,82.28
2023-03-05T18:54:49.914Z,83.26
2023-03-05T18:57:11.346Z,81.70
2023-03-05T18:59:32.773Z,81.35
2023-03-05T19:01:54.190Z,82.99
2023-03-05T19:04:15.657Z,83.36
2023-03-05T19:06:38.414Z,84.80
2023-03-05T19:09:00.859Z,84.77
2023-03-05T19:11:22.391Z,84.99
2023-03-05T19:13:49.050Z,85.45
2023-03-05T19:16:17.707Z,86.22
2023-03-05T19:18:43.084Z,87.44
2023-03-05T19:21:04.679Z,88.21
2023-03-05T19:23:26.219Z,89.16
2023-03-05T19:25:47.825Z,89.45
2023-03-05T19:28:09.587Z,89.53
2023-03-05T19:30:31.130Z,90.14
2023-03-05T19:32:52.546Z,90.40
2023-03-05T19:35:16.427Z,91.02
2023-03-05T19:37:37.859Z,91.37
2023-03-05T19:39:59.356Z,91.45
2023-03-05T19:42:20.800Z,92.15
2023-03-05T19:44:42.309Z,91.61
2023-03-05T19:47:03.859Z,92.28
2023-03-05T19:49:25.541Z,92.18
2023-03-05T19:51:47.375Z,92.54
2023-03-05T19:54:09.619Z,92.20
2023-03-05T19:56:31.103Z,91.85
2023-03-05T19:58:52.550Z,92.35
2023-03-05T20:01:15.914Z,92.50
2023-03-05T20:03:38.397Z,93.10
2023-03-05T20:05:59.847Z,92.60
2023-03-05T20:08:21.268Z,91.81
2023-03-05T20:10:42.772Z,92.19
2023-03-05T20:13:05.198Z,92.58
2023-03-05T20:15:29.285Z,92.36
2023-03-05T20:17:52.647Z,91.78
2023-03-05T20:20:17.949Z,90.49
2023-03-05T20:22:42.111Z,90.85
2023-03-05T20:25:03.887Z,90.47
2023-03-05T20:27:25.339Z,90.87
2023-03-05T20:29:46.809Z,91.89
2023-03-05T20:32:08.297Z,92.30
2023-03-05T20:34:31.200Z,92.92
2023-03-05T20:36:52.625Z,92.92
2023-03-05T20:39:14.154Z,92.71
2023-03-05T20:41:37.803Z,92.77
2023-03-05T20:43:59.260Z,92.97
2023-03-05T20:46:23.814Z,92.77
2023-03-05T20:48:48.130Z,93.49
2023-03-05T20:51:16.038Z,93.57
2023-03-05T20:53:37.482Z,93.42
2023-03-05T20:55:58.943Z,93.27
2023-03-05T20:58:20.431Z,92.63
2023-03-05T21:00:42.304Z,92.54
2023-03-05T21:03:03.871Z,91.36
2023-03-05T21:05:28.661Z,91.56
2023-03-05T21:07:50.601Z,91.50
2023-03-05T21:10:14.226Z,90.84
2023-03-05T21:12:35.681Z,91.84
2023-03-05T21:14:57.116Z,91.72
2023-03-05T21:17:18.592Z,91.22
2023-03-05T21:19:40.155Z,91.13
2023-03-05T21:22:01.610Z,92.37
2023-03-05T21:24:25.402Z,92.34
2023-03-05T21:26:46.817Z,91.60
2023-03-05T21:29:08.240Z,91.95
2023-03-05T21:31:29.747Z,91.27
2023-03-05T21:33:51.252Z,90.70
2023-03-05T21:36:13.195Z,90.21
2023-03-05T21:38:34.786Z,89.04
2023-03-05T21:40:57.839Z,88.57
2023-03-05T21:43:22.623Z,87.06
2023-03-05T21:45:47.264Z,86.36
2023-03-05T21:48:09.538Z,86.27
2023-03-05T21:50:33.406Z,85.35
2023-03-05T21:52:55.029Z,85.72
2023-03-05T21:55:19.480Z,85.08
2023-03-05T21:57:41.173Z,85.05
2023-03-05T22:00:05.730Z,83.75
2023-03-05T22:02:27.291Z,83.18
2023-03-05T22:04:49.139Z,83.44
2023-03-05T22:07:10.669Z,83.06
2023-03-05T22:09:32.118Z,82.11
2023-03-05T22:11:53.541Z,83.29
2023-03-05T22:14:16.856Z,83.23
2023-03-05T22:16:39.131Z,83.54
2023-03-05T22:19:00.609Z,83.65
2023-03-05T22:21:26.447Z,82.95
2023-03-05T22:23:48.129Z,82.39
2023-03-05T22:26:09.634Z,81.38
2023-03-05T22:28:32.506Z,82.27
2023-03-05T22:30:54.800Z,82.13
2023-03-05T22:33:16.262Z,81.78
2023-03-05T22:35:41.641Z,83.52
2023-03-05T22:38:03.153Z,85.89
2023-03-05T22:40:24.732Z,87.53
2023-03-05T22:42:46.533Z,87.68
2023-03-05T22:45:09.298Z,88.70
2023-03-05T22:47:31.388Z,89.04
2023-03-05T22:49:53.807Z,87.97
2023-03-05T22:52:15.264Z,86.75
2023-03-05T22:54:36.687Z,87.06
2023-03-05T22:56:58.144Z,86.91
2023-03-05T22:59:19.577Z,86.44
2023-03-05T23:01:41.165Z,85.42
2023-03-05T23:04:08.738Z,85.77
2023-03-05T23:06:30.250Z,86.88
2023-03-05T23:08:51.668Z,85.97
2023-03-05T23:11:13.302Z,84.61
2023-03-05T23:13:34.852Z,84.29
2023-03-05T23:15:56.311Z,85.23
2023-03-05T23:18:17.875Z,84.79
2023-03-05T23:20:39.312Z,85.01
2023-03-05T23:23:01.546Z,84.58
2023-03-05T23:25:25.473Z,83.94
2023-03-05T23:27:47.058Z,83.10
2023-03-05T23:30:24.595Z,81.87
2023-03-05T23:32:51.770Z,82.43
2023-03-05T23:35:15.316Z,82.68
2023-03-05T23:37:36.762Z,82.35
2023-03-05T23:39:59.359Z,82.51
2023-03-05T23:42:20.884Z,84.62
2023-03-05T23:44:42.302Z,84.69
2023-03-05T23:47:03.844Z,83.92
2023-03-05T23:49:25.314Z,83.90
2023-03-05T23:51:46.776Z,83.52
2023-03-05T23:54:08.198Z,84.05
2023-03-05T23:56:31.440Z,84.53
2023-03-05T23:58:56.083Z,84.45
